Time;durP1;ratioP1;P1;durP2;ratioP2;P2;SDS_P1;SDS_P2;PMS_P1;PMS_P2;Temp;Humidity;BMP_temperature;BMP_pressure;BME280_temperature;BME280_humidity;BME280_pressure;Samples;Min_cycle;Max_cycle;Signal;HPM_P1;HPM_P2
2023/07/10 00:01:44;;;;;;;;;5.50;4.00;;;;;26.32;39.74;101624.69;5060833;28;45451;-62
2023/07/10 00:04:18;;;;;;;;;3.00;3.00;;;;;26.31;39.82;101622.09;5097055;27;45199;-62
2023/07/10 00:06:45;;;;;;;;;4.00;4.00;;;;;26.29;39.23;101627.59;5061410;28;45306;-62
2023/07/10 00:09:10;;;;;;;;;3.00;3.00;;;;;26.24;39.09;101627.91;5069117;28;47161;-62
2023/07/10 00:11:36;;;;;;;;;5.25;4.25;;;;;26.22;39.84;101629.81;5060214;28;45191;-62
2023/07/10 00:14:05;;;;;;;;;5.00;5.00;;;;;26.19;39.56;101627.34;5060939;28;45300;-62
2023/07/10 00:16:31;;;;;;;;;11.75;5.75;;;;;26.20;39.25;101637.16;5060563;28;45459;-62
2023/07/10 00:18:56;;;;;;;;;4.00;4.00;;;;;26.14;39.60;101626.78;5060363;28;45472;-62
2023/07/10 00:21:22;;;;;;;;;5.00;3.00;;;;;26.17;39.22;101636.50;5068205;28;45707;-62
2023/07/10 00:23:47;;;;;;;;;4.50;3.00;;;;;26.14;39.38;101632.16;5060859;28;45347;-62
2023/07/10 00:26:19;;;;;;;;;4.50;3.75;;;;;26.14;39.35;101633.97;5060240;28;45567;-62
2023/07/10 00:28:46;;;;;;;;;4.00;4.00;;;;;26.11;39.58;101637.75;5060396;28;46237;-62
2023/07/10 00:31:13;;;;;;;;;6.75;4.50;;;;;26.11;39.47;101640.44;5060299;28;45398;-62
2023/07/10 00:33:38;;;;;;;;;6.00;5.00;;;;;26.10;39.55;101641.41;5060384;28;45342;-62
2023/07/10 00:36:24;;;;;;;;;4.75;4.75;;;;;26.07;39.96;101645.16;5060170;28;45410;-62
2023/07/10 00:38:49;;;;;;;;;5.50;4.00;;;;;26.04;39.70;101645.34;5060102;28;45390;-62
2023/07/10 00:41:14;;;;;;;;;3.00;3.00;;;;;26.04;39.35;101644.50;5059873;28;45287;-62
2023/07/10 00:43:45;;;;;;;;;3.25;3.25;;;;;25.95;39.63;101630.66;5060507;28;45548;-62
2023/07/10 00:46:45;;;;;;;;;3.25;3.25;;;;;26.00;39.94;101645.63;5058943;28;45894;-62
2023/07/10 00:49:19;;;;;;;;;6.50;5.75;;;;;25.95;39.48;101643.25;5059919;28;45477;-62
2023/07/10 00:52:02;;;;;;;;;3.25;3.25;;;;;25.94;39.45;101642.38;5047225;28;46139;-62
2023/07/10 00:54:35;;;;;;;;;3.00;3.00;;;;;25.91;39.70;101639.91;5079239;28;45323;-62
2023/07/10 00:57:05;;;;;;;;;2.00;2.00;;;;;25.90;39.35;101653.44;5079837;28;46630;-62
2023/07/10 00:59:37;;;;;;;;;3.00;3.00;;;;;25.87;39.91;101643.72;5080136;28;45324;-62
2023/07/10 01:02:11;;;;;;;;;5.00;5.00;;;;;25.86;39.78;101651.91;5078929;27;45292;-62
2023/07/10 01:04:42;;;;;;;;;6.25;4.00;;;;;25.82;39.83;101648.56;5080298;28;45301;-62
2023/07/10 01:07:12;;;;;;;;;4.75;4.00;;;;;25.81;39.58;101644.16;5080237;28;45213;-62
2023/07/10 01:09:40;;;;;;;;;3.50;2.00;;;;;25.78;40.00;101647.03;5078595;28;48131;-62
2023/07/10 01:12:06;;;;;;;;;4.25;4.25;;;;;25.74;39.65;101634.75;5079813;28;45429;-62
2023/07/10 01:14:34;;;;;;;;;4.25;4.25;;;;;25.74;39.63;101634.75;5080077;28;45274;-62
2023/07/10 01:17:01;;;;;;;;;5.75;4.25;;;;;25.72;39.77;101637.53;5080049;28;45388;-62
2023/07/10 01:19:29;;;;;;;;;3.00;3.00;;;;;25.68;39.88;101636.00;5078542;28;47389;-62
2023/07/10 01:21:54;;;;;;;;;4.00;3.00;;;;;25.66;39.55;101627.16;5068641;28;45389;-62
2023/07/10 01:24:20;;;;;;;;;1.00;1.00;;;;;25.63;39.93;101622.84;5058528;28;45622;-62
2023/07/10 01:26:45;;;;;;;;;3.00;3.00;;;;;25.64;39.88;101629.09;5059224;28;45169;-62
2023/07/10 01:29:25;;;;;;;;;3.25;3.00;;;;;25.62;39.54;101631.88;5059497;28;46381;-62
2023/07/10 01:31:53;;;;;;;;;4.00;3.50;;;;;25.61;39.79;101634.69;5059771;28;45346;-62
2023/07/10 01:34:23;;;;;;;;;2.75;2.75;;;;;25.58;39.80;101629.47;5059391;28;45268;-62
2023/07/10 01:36:50;;;;;;;;;3.00;2.00;;;;;25.55;39.46;101632.38;5068651;28;45539;-62
2023/07/10 01:39:15;;;;;;;;;3.75;3.25;;;;;25.54;39.70;101636.03;5061807;28;47399;-62
2023/07/10 01:41:43;;;;;;;;;3.50;3.25;;;;;25.51;39.68;101634.38;5059108;28;45393;-62
2023/07/10 01:44:22;;;;;;;;;4.00;4.00;;;;;25.50;39.82;101640.72;5059698;28;45201;-62
2023/07/10 01:46:49;;;;;;;;;2.25;2.25;;;;;25.45;39.21;101642.84;5059647;28;45537;-62
2023/07/10 01:49:17;;;;;;;;;5.75;3.25;;;;;25.45;39.49;101649.06;5061466;28;46407;-62
2023/07/10 01:51:42;;;;;;;;;4.00;4.00;;;;;25.43;39.81;101647.44;5064922;28;45256;-62
2023/07/10 01:54:13;;;;;;;;;6.50;4.00;;;;;25.43;40.15;101653.72;5081922;28;45722;-62
2023/07/10 01:56:38;;;;;;;;;3.00;3.00;;;;;25.40;39.99;101651.19;5081382;28;45560;-62
2023/07/10 01:59:03;;;;;;;;;4.25;4.25;;;;;25.40;40.06;101658.41;5082938;28;46293;-62
2023/07/10 02:01:29;;;;;;;;;2.50;2.00;;;;;25.37;39.98;101646.03;5082949;28;50360;-62
2023/07/10 02:03:54;;;;;;;;;2.75;2.75;;;;;25.36;39.65;101646.06;5082849;28;47897;-62
2023/07/10 02:06:21;;;;;;;;;3.75;3.25;;;;;25.34;39.71;101645.31;5065642;28;45237;-62
2023/07/10 02:08:47;;;;;;;;;5.00;3.75;;;;;25.29;40.12;101646.44;5061324;28;47147;-62
2023/07/10 02:11:12;;;;;;;;;3.00;3.00;;;;;25.30;40.05;101647.31;5062190;28;45397;-62
2023/07/10 02:13:37;;;;;;;;;5.00;3.25;;;;;25.25;39.80;101638.69;5062933;28;45275;-62
2023/07/10 02:16:04;;;;;;;;;2.00;2.00;;;;;25.27;39.48;101653.75;5061155;28;45846;-62
2023/07/10 02:18:29;;;;;;;;;3.75;3.50;;;;;25.24;39.91;101647.72;5062643;28;46151;-62
2023/07/10 02:20:54;;;;;;;;;4.00;2.75;;;;;25.22;39.76;101647.81;5069401;28;45684;-67
2023/07/10 02:23:21;;;;;;;;;4.75;3.00;;;;;25.19;39.90;101647.13;5061208;28;45273;-62
2023/07/10 02:25:46;;;;;;;;;3.00;3.00;;;;;25.14;40.22;101642.03;5061956;28;45240;-62
2023/07/10 02:28:12;;;;;;;;;5.00;3.00;;;;;25.12;39.55;101644.81;5062199;28;46572;-63
2023/07/10 02:30:38;;;;;;;;;4.00;3.25;;;;;25.13;40.04;101649.25;5060763;28;45511;-62
2023/07/10 02:33:04;;;;;;;;;3.50;3.50;;;;;25.10;39.75;101656.63;5061240;28;45249;-63
2023/07/10 02:35:29;;;;;;;;;3.00;3.00;;;;;25.08;40.15;101653.16;5075625;28;45476;-62
2023/07/10 02:37:55;;;;;;;;;4.00;3.00;;;;;25.06;40.12;101661.31;5060800;28;47175;-62
2023/07/10 02:40:20;;;;;;;;;5.50;5.50;;;;;25.03;40.45;101655.28;5060665;28;45466;-62
2023/07/10 02:42:45;;;;;;;;;4.50;4.00;;;;;24.99;39.99;101655.47;5062440;28;45444;-62
2023/07/10 02:45:10;;;;;;;;;5.75;4.00;;;;;25.01;40.08;101659.88;5061943;28;45483;-62
2023/07/10 02:47:36;;;;;;;;;6.25;4.25;;;;;24.99;40.03;101660.84;5062130;28;45299;-62
2023/07/10 02:50:01;;;;;;;;;4.00;4.00;;;;;24.92;40.82;101643.34;5060484;28;45326;-62
2023/07/10 02:52:26;;;;;;;;;3.00;3.00;;;;;24.95;40.68;101659.28;5070539;28;45279;-62
2023/07/10 02:54:52;;;;;;;;;3.75;3.75;;;;;24.93;40.77;101653.16;5081930;28;45513;-62
2023/07/10 02:57:17;;;;;;;;;6.00;5.00;;;;;24.92;40.37;101661.31;5081904;28;51002;-62
2023/07/10 02:59:42;;;;;;;;;6.00;5.00;;;;;24.90;40.64;101669.44;5080797;28;45405;-62
2023/07/10 03:02:08;;;;;;;;;6.25;4.75;;;;;24.87;40.39;101664.28;5082520;28;45434;-62
2023/07/10 03:04:33;;;;;;;;;4.50;4.00;;;;;24.86;40.70;101665.22;5082019;28;45286;-62
2023/07/10 03:06:58;;;;;;;;;6.75;4.50;;;;;24.85;40.38;101663.50;5081804;28;51641;-62
2023/07/10 03:09:24;;;;;;;;;5.75;4.50;;;;;24.80;40.77;101669.16;5081952;28;46625;-62
2023/07/10 03:11:49;;;;;;;;;4.00;3.50;;;;;24.81;40.89;101673.56;5081956;28;45325;-62
2023/07/10 03:14:14;;;;;;;;;5.25;5.25;;;;;24.76;40.70;101667.59;5080788;28;45474;-62
2023/07/10 03:16:40;;;;;;;;;6.00;6.00;;;;;24.76;40.61;101662.22;5081506;28;52703;-62
2023/07/10 03:19:05;;;;;;;;;7.25;5.25;;;;;24.73;40.56;101666.91;5080469;28;45190;-62
2023/07/10 03:21:30;;;;;;;;;6.00;4.75;;;;;24.75;40.76;101676.59;5074554;28;45214;-62
2023/07/10 03:23:56;;;;;;;;;8.00;7.25;;;;;24.74;40.83;101679.38;5061686;28;45221;-62
2023/07/10 03:26:21;;;;;;;;;7.00;5.00;;;;;24.72;41.13;101684.00;5061040;28;45407;-62
2023/07/10 03:28:46;;;;;;;;;7.00;6.00;;;;;24.71;41.15;101679.59;5059991;28;45566;-62
2023/07/10 03:31:12;;;;;;;;;5.00;5.00;;;;;24.66;41.05;101680.69;5061560;28;45217;-62
2023/07/10 03:33:37;;;;;;;;;3.50;3.50;;;;;24.66;41.38;101687.91;5061303;28;45177;-62
2023/07/10 03:36:05;;;;;;;;;6.75;4.25;;;;;24.63;41.12;101685.38;5061145;28;50603;-62
2023/07/10 03:38:31;;;;;;;;;12.00;9.50;;;;;24.58;41.53;101674.91;5061057;28;45264;-62
2023/07/10 03:40:57;;;;;;;;;5.50;5.50;;;;;24.63;41.36;101685.38;5059792;28;45336;-62
2023/07/10 03:43:26;;;;;;;;;6.50;5.50;;;;;24.62;41.36;101689.88;5061119;28;45470;-62
2023/07/10 03:45:55;;;;;;;;;5.00;5.00;;;;;24.59;41.67;101692.75;5061090;28;45463;-62
2023/07/10 03:48:20;;;;;;;;;7.50;5.00;;;;;24.57;42.05;101683.91;5060918;28;45394;-62
2023/07/10 03:50:45;;;;;;;;;8.00;6.25;;;;;24.57;41.80;101691.97;5061118;28;45620;-62
2023/07/10 03:53:11;;;;;;;;;7.25;7.00;;;;;24.58;41.66;101684.75;5074332;28;45493;-62
2023/07/10 03:55:36;;;;;;;;;6.00;6.00;;;;;24.53;41.66;101692.22;5080935;27;45650;-62
2023/07/10 03:58:02;;;;;;;;;6.25;5.50;;;;;24.52;41.73;101688.69;5081107;28;45321;-62
2023/07/10 04:00:27;;;;;;;;;4.75;4.75;;;;;24.51;41.98;101700.38;5080037;28;45380;-62
2023/07/10 04:02:53;;;;;;;;;7.00;7.00;;;;;24.49;41.46;101699.63;5079920;28;45468;-62
2023/07/10 04:05:18;;;;;;;;;7.25;5.75;;;;;24.47;41.68;101693.47;5079388;28;46279;-62
2023/07/10 04:07:44;;;;;;;;;8.50;6.00;;;;;24.40;41.76;101684.03;5079630;28;45359;-62
2023/07/10 04:10:09;;;;;;;;;5.75;5.75;;;;;24.43;42.00;101703.53;5080563;28;45528;-62
2023/07/10 04:12:34;;;;;;;;;6.75;6.25;;;;;24.40;41.99;101703.72;5081160;28;45344;-62
2023/07/10 04:15:00;;;;;;;;;8.75;7.00;;;;;24.40;41.86;101705.50;5079200;28;59462;-62
2023/07/10 04:17:25;;;;;;;;;8.75;8.00;;;;;24.40;42.05;101710.88;5080887;28;45270;-62
2023/07/10 04:19:51;;;;;;;;;9.25;6.75;;;;;24.34;41.97;101707.59;5081101;28;45225;-62
2023/07/10 04:22:16;;;;;;;;;8.00;8.00;;;;;24.33;42.10;101716.59;5066975;28;45410;-62
2023/07/10 04:24:41;;;;;;;;;6.25;6.25;;;;;24.29;42.26;101717.75;5060563;28;45414;-62
2023/07/10 04:27:08;;;;;;;;;6.75;6.75;;;;;24.25;42.29;101715.31;5060066;28;45350;-62
2023/07/10 04:29:34;;;;;;;;;6.75;6.75;;;;;24.24;42.64;101727.88;5060615;28;45308;-62
2023/07/10 04:31:59;;;;;;;;;7.25;7.25;;;;;24.23;42.45;101725.28;5060420;28;46560;-62
2023/07/10 04:34:24;;;;;;;;;7.75;7.00;;;;;24.18;42.62;101722.84;5058606;28;61971;-62
2023/07/10 04:36:50;;;;;;;;;6.50;5.75;;;;;24.16;42.45;101728.31;5060220;28;45360;-62
2023/07/10 04:39:15;;;;;;;;;14.00;11.25;;;;;24.13;42.71;101722.25;5060546;28;45336;-62
2023/07/10 04:41:43;;;;;;;;;9.00;7.25;;;;;24.13;42.45;101733.00;5059898;28;45517;-62
2023/07/10 04:44:08;;;;;;;;;14.50;13.00;;;;;24.12;42.70;101733.94;5060162;28;47032;-62
2023/07/10 04:46:33;;;;;;;;;22.75;21.00;;;;;24.13;42.81;101730.31;5060101;28;45383;-62
2023/07/10 04:48:59;;;;;;;;;8.50;8.50;;;;;24.12;42.98;101733.94;5060243;28;45622;-62
2023/07/10 04:51:24;;;;;;;;;7.50;6.25;;;;;24.09;42.88;101734.97;5058667;28;52590;-62
2023/07/10 04:53:49;;;;;;;;;8.75;7.25;;;;;24.10;42.87;101739.41;5078945;28;48212;-62
2023/07/10 04:56:17;;;;;;;;;34.50;30.75;;;;;24.10;42.92;101735.81;5075341;28;45289;-62
2023/07/10 04:58:52;;;;;;;;;9.00;6.00;;;;;24.06;42.92;101732.44;5059001;28;45277;-62
2023/07/10 05:01:20;;;;;;;;;10.75;8.25;;;;;24.09;43.01;101742.19;5059952;28;45161;-62
2023/07/10 05:03:45;;;;;;;;;6.75;6.25;;;;;24.05;42.97;101741.47;5058633;28;46991;-62
2023/07/10 05:06:11;;;;;;;;;9.50;8.50;;;;;24.04;43.05;101741.53;5059875;28;45417;-62
2023/07/10 05:08:36;;;;;;;;;9.75;7.75;;;;;24.04;43.04;101744.22;5058706;28;45238;-62
2023/07/10 05:11:02;;;;;;;;;7.00;7.00;;;;;24.03;43.12;101740.69;5059456;28;45400;-62
2023/07/10 05:13:28;;;;;;;;;9.75;9.00;;;;;24.03;43.25;101740.69;5059889;28;45927;-62
2023/07/10 05:15:56;;;;;;;;;11.50;7.50;;;;;23.99;43.20;101733.75;5059654;28;45335;-62
2023/07/10 05:18:22;;;;;;;;;8.00;7.75;;;;;23.98;43.30;101732.03;5059967;28;45425;-62
2023/07/10 05:20:48;;;;;;;;;7.50;6.75;;;;;23.96;43.39;101729.44;5067587;28;45383;-62
2023/07/10 05:23:15;;;;;;;;;7.00;6.00;;;;;23.95;43.09;101732.16;5062028;28;45534;-62
2023/07/10 05:25:40;;;;;;;;;8.00;8.00;;;;;23.94;43.54;101736.69;5073342;28;45877;-62
2023/07/10 05:28:06;;;;;;;;;9.00;9.00;;;;;23.91;43.45;101731.50;5062072;28;45409;-62
2023/07/10 05:30:35;;;;;;;;;11.25;7.25;;;;;23.92;43.48;101748.47;5063006;28;45382;-63
2023/07/10 05:33:02;;;;;;;;;8.00;6.25;;;;;23.91;43.69;101749.38;5061793;28;46782;-62
2023/07/10 05:35:28;;;;;;;;;8.00;8.00;;;;;23.90;43.64;101751.19;5063083;28;45244;-62
2023/07/10 05:37:53;;;;;;;;;9.00;6.50;;;;;23.85;43.54;101745.22;5067034;28;45716;-62
2023/07/10 05:40:18;;;;;;;;;9.00;8.00;;;;;23.86;43.13;101744.25;5059647;28;45494;-62
2023/07/10 05:42:44;;;;;;;;;9.75;7.25;;;;;23.83;43.69;101734.53;5083260;28;49752;-62
2023/07/10 05:45:09;;;;;;;;;8.00;7.50;;;;;23.80;43.93;101745.47;5083338;28;45383;-62
2023/07/10 05:47:35;;;;;;;;;5.75;4.75;;;;;23.77;43.67;101740.28;5082099;28;45261;-62
2023/07/10 05:50:00;;;;;;;;;8.75;7.50;;;;;23.78;43.98;101743.81;5083210;28;45569;-62
2023/07/10 05:52:25;;;;;;;;;8.25;7.00;;;;;23.78;43.54;101735.75;5081507;28;49692;-62
2023/07/10 05:54:52;;;;;;;;;8.75;7.00;;;;;23.75;43.66;101735.91;5082877;28;50267;-62
2023/07/10 05:57:17;;;;;;;;;8.75;8.00;;;;;23.75;43.87;101735.91;5081849;28;45426;-62
2023/07/10 05:59:43;;;;;;;;;8.25;8.25;;;;;23.68;44.00;101725.53;5082951;28;45291;-62
2023/07/10 06:02:10;;;;;;;;;10.50;8.25;;;;;23.74;43.94;101740.44;5083127;28;46452;-62
2023/07/10 06:04:35;;;;;;;;;8.25;8.25;;;;;23.74;43.93;101751.16;5083025;28;45278;-62
2023/07/10 06:07:01;;;;;;;;;9.25;8.00;;;;;23.73;43.75;101740.53;5083019;28;45281;-62
2023/07/10 06:09:26;;;;;;;;;5.75;5.75;;;;;23.75;44.14;101742.16;5083035;28;45165;-62
2023/07/10 06:11:51;;;;;;;;;7.25;6.00;;;;;23.75;43.97;101741.28;5082450;28;45335;-62
2023/07/10 06:14:17;;;;;;;;;7.25;6.00;;;;;23.73;44.29;101738.69;5082413;28;57786;-62
2023/07/10 06:16:42;;;;;;;;;5.75;5.75;;;;;23.69;44.43;101735.31;5081599;28;45178;-62
2023/07/10 06:19:07;;;;;;;;;6.75;5.50;;;;;23.69;44.35;101735.31;5082749;28;45425;-62
2023/07/10 06:21:33;;;;;;;;;6.25;3.50;;;;;23.72;44.51;101750.38;5073660;28;46603;-61
2023/07/10 06:23:58;;;;;;;;;7.00;6.00;;;;;23.72;44.11;101736.94;5062468;28;45215;-62
2023/07/10 06:26:23;;;;;;;;;7.00;6.25;;;;;23.72;43.95;101741.47;5062203;28;45488;-62
2023/07/10 06:28:49;;;;;;;;;5.75;5.75;;;;;23.71;44.14;101737.94;5062558;28;45218;-61
2023/07/10 06:31:14;;;;;;;;;6.75;6.25;;;;;23.75;44.26;101743.97;5062167;28;46334;-61
2023/07/10 06:33:39;;;;;;;;;6.75;5.75;;;;;23.72;43.84;101736.09;5061958;28;45362;-62
2023/07/10 06:36:05;;;;;;;;;6.25;5.25;;;;;23.76;44.22;101743.03;5062404;28;45308;-61
2023/07/10 06:38:31;;;;;;;;;7.25;6.75;;;;;23.77;44.48;101739.41;5060912;28;45521;-62
2023/07/10 06:40:57;;;;;;;;;4.00;4.00;;;;;23.74;44.45;101734.22;5082152;28;45885;-61
2023/07/10 06:43:23;;;;;;;;;7.25;5.00;;;;;23.78;44.49;101731.25;5082331;28;45465;-62
2023/07/10 06:45:49;;;;;;;;;5.00;5.00;;;;;23.78;44.24;101738.44;5074491;28;45406;-62
2023/07/10 06:48:15;;;;;;;;;9.75;8.25;;;;;23.81;44.27;101735.59;5061958;28;45473;-62
2023/07/10 06:50:46;;;;;;;;;10.50;8.00;;;;;23.79;44.37;101740.19;5061852;28;46194;-62
2023/07/10 06:53:11;;;;;;;;;4.75;4.00;;;;;23.83;44.49;101739.06;5076676;28;45379;-62
2023/07/10 06:55:37;;;;;;;;;13.00;6.25;;;;;23.83;44.42;101739.91;5081975;28;45438;-62
2023/07/10 06:58:02;;;;;;;;;10.25;5.00;;;;;23.81;44.34;101740.94;5082072;28;45521;-62
2023/07/10 07:00:27;;;;;;;;;6.00;6.00;;;;;23.86;44.69;101746.94;5082188;28;45860;-62
2023/07/10 07:02:53;;;;;;;;;6.25;6.00;;;;;23.84;44.34;101738.13;5082058;28;45330;-62
2023/07/10 07:05:18;;;;;;;;;5.00;5.00;;;;;23.87;44.49;101745.97;5081966;28;46827;-62
2023/07/10 07:07:43;;;;;;;;;8.00;7.50;;;;;23.91;44.22;101741.31;5082112;28;45414;-62
2023/07/10 07:10:13;;;;;;;;;5.75;4.50;;;;;23.87;44.32;101729.88;5081593;28;45373;-62
2023/07/10 07:12:40;;;;;;;;;6.50;4.00;;;;;23.92;44.22;101737.72;5080204;28;45595;-62
2023/07/10 07:15:06;;;;;;;;;5.50;5.00;;;;;23.95;44.28;101746.47;5081900;28;45362;-62
2023/07/10 07:17:32;;;;;;;;;5.00;3.75;;;;;23.99;44.29;101741.81;5081714;28;45315;-62
2023/07/10 07:19:57;;;;;;;;;4.25;4.25;;;;;23.99;44.43;101739.97;5081674;28;45445;-62
2023/07/10 07:22:22;;;;;;;;;3.75;3.75;;;;;24.01;44.20;101742.56;5066443;28;45409;-61
2023/07/10 07:24:48;;;;;;;;;4.25;3.50;;;;;24.01;44.06;101734.53;5061492;28;45439;-62
2023/07/10 07:27:14;;;;;;;;;3.50;3.50;;;;;24.04;43.84;101733.47;5061145;28;45308;-62
2023/07/10 07:29:39;;;;;;;;;4.25;3.50;;;;;24.06;43.97;101731.59;5061310;28;45451;-62
2023/07/10 07:32:05;;;;;;;;;2.50;2.50;;;;;24.07;44.24;101736.00;5061525;28;45291;-62
2023/07/10 07:34:30;;;;;;;;;1.25;1.00;;;;;24.07;43.89;101736.00;5065127;28;45439;-62
2023/07/10 07:36:56;;;;;;;;;2.75;2.75;;;;;24.10;43.89;101736.72;5061400;28;45485;-62
2023/07/10 07:39:21;;;;;;;;;4.50;4.00;;;;;24.12;43.66;101725.88;5061209;28;45276;-62
2023/07/10 07:41:47;;;;;;;;;3.75;2.75;;;;;24.12;43.93;101728.56;5059727;28;45260;-62
2023/07/10 07:44:12;;;;;;;;;5.75;4.00;;;;;24.14;43.58;101729.34;5061120;28;45242;-62
2023/07/10 07:46:38;;;;;;;;;5.75;3.00;;;;;24.17;43.59;101719.28;5060714;28;45482;-62
2023/07/10 07:49:03;;;;;;;;;6.00;3.75;;;;;24.21;43.47;101740.59;5064132;28;46125;-62
2023/07/10 07:51:29;;;;;;;;;7.00;3.00;;;;;24.19;43.68;101729.97;5061228;28;45286;-62
2023/07/10 07:54:07;;;;;;;;;4.00;2.25;;;;;24.23;43.58;101726.13;5081481;28;45323;-62
2023/07/10 07:56:32;;;;;;;;;3.25;3.00;;;;;24.22;43.20;101727.09;5080830;28;45282;-62
2023/07/10 07:58:58;;;;;;;;;2.00;2.00;;;;;24.24;43.59;101730.56;5081173;28;46707;-65
2023/07/10 08:01:23;;;;;;;;;3.00;0.75;;;;;24.25;43.50;101724.25;5080026;28;45447;-62
2023/07/10 08:03:48;;;;;;;;;2.75;2.75;;;;;24.27;43.10;101716.94;5081293;28;45399;-62
2023/07/10 08:06:14;;;;;;;;;4.25;2.50;;;;;24.31;43.23;101721.22;5064209;28;45510;-62
2023/07/10 08:08:39;;;;;;;;;3.00;3.00;;;;;24.35;43.04;101727.25;5060818;28;46026;-61
2023/07/10 08:11:06;;;;;;;;;5.00;4.00;;;;;24.36;43.64;101723.63;5060271;28;45571;-62
2023/07/10 08:13:31;;;;;;;;;2.75;2.00;;;;;24.38;42.83;101721.72;5061225;28;45352;-61
2023/07/10 08:15:57;;;;;;;;;4.00;3.50;;;;;24.40;43.10;101718.94;5060462;28;45219;-62
2023/07/10 08:18:22;;;;;;;;;2.50;2.00;;;;;24.45;42.80;101708.78;5064107;28;45808;-62
2023/07/10 08:20:48;;;;;;;;;3.25;3.00;;;;;24.48;42.88;101706.81;5068749;28;45216;-62
2023/07/10 08:23:13;;;;;;;;;5.00;3.00;;;;;24.50;42.87;101714.75;5059151;28;45270;-62
2023/07/10 08:25:38;;;;;;;;;3.00;3.00;;;;;24.54;42.65;101713.66;5059014;28;45505;-62
2023/07/10 08:28:04;;;;;;;;;2.00;2.00;;;;;24.58;42.42;101715.19;5060426;28;46279;-62
2023/07/10 08:30:29;;;;;;;;;2.00;2.00;;;;;24.61;42.76;101717.69;5060429;28;45331;-61
2023/07/10 08:32:55;;;;;;;;;4.25;2.00;;;;;24.64;42.43;101712.19;5060612;28;45330;-61
2023/07/10 08:35:22;;;;;;;;;4.00;2.50;;;;;24.66;42.45;101712.94;5060346;28;45403;-62
2023/07/10 08:37:48;;;;;;;;;4.25;2.50;;;;;24.69;42.35;101719.09;5060488;28;46088;-61
2023/07/10 08:40:25;;;;;;;;;4.00;2.00;;;;;24.70;42.04;101710.94;5069711;28;45671;-61
2023/07/10 08:42:50;;;;;;;;;6.00;3.00;;;;;24.73;42.26;101710.78;5060399;28;45287;-62
2023/07/10 08:45:30;;;;;;;;;1.50;1.00;;;;;24.74;42.07;101704.47;5060119;28;45211;-62
2023/07/10 08:48:09;;;;;;;;;2.25;2.25;;;;;24.82;41.98;101717.44;5060378;28;45415;-61
2023/07/10 08:50:36;;;;;;;;;2.50;2.50;;;;;24.85;41.93;101714.56;5059839;28;45366;-62
2023/07/10 08:53:12;;;;;;;;;6.25;3.50;;;;;24.85;42.01;101706.50;5073524;28;45405;-62
2023/07/10 08:55:55;;;;;;;;;3.00;2.00;;;;;24.89;41.70;101709.88;5080033;27;45520;-62
2023/07/10 08:58:25;;;;;;;;;3.00;1.00;;;;;24.95;41.54;101720.25;5080196;28;46677;-62
2023/07/10 09:00:57;;;;;;;;;1.00;1.00;;;;;24.95;41.25;101718.41;5080446;28;45327;-62
2023/07/10 09:03:39;;;;;;;;;1.00;1.00;;;;;25.00;41.52;101718.16;5078956;27;45320;-62
2023/07/10 09:06:10;;;;;;;;;1.50;1.50;;;;;24.98;41.10;101702.13;5080043;28;45524;-62
2023/07/10 09:08:35;;;;;;;;;2.25;1.00;;;;;25.05;41.39;101709.81;5078735;28;47065;-62
2023/07/10 09:11:03;;;;;;;;;3.75;2.50;;;;;25.08;40.76;101713.19;5063798;28;45474;-62
2023/07/10 09:13:42;;;;;;;;;1.00;1.00;;;;;25.12;40.50;101709.34;5058648;28;45416;-62
2023/07/10 09:16:17;;;;;;;;;0.00;0.00;;;;;25.18;40.46;101705.41;5059842;28;45277;-63
2023/07/10 09:18:49;;;;;;;;;1.75;1.75;;;;;25.23;40.88;101715.91;5059851;28;45491;-63
2023/07/10 09:21:29;;;;;;;;;1.25;1.25;;;;;25.26;39.84;101713.03;5067247;28;45271;-63
2023/07/10 09:23:55;;;;;;;;;1.00;1.00;;;;;25.32;40.01;101709.97;5059917;28;45287;-63
2023/07/10 09:26:26;;;;;;;;;1.25;1.25;;;;;25.34;39.64;101712.56;5061730;28;45613;-60
2023/07/10 09:29:10;;;;;;;;;1.00;1.00;;;;;25.42;40.20;101710.28;5069363;28;47470;-62
2023/07/10 09:31:50;;;;;;;;;2.00;2.00;;;;;25.47;39.92;101711.75;5059501;28;45244;-62
2023/07/10 09:34:20;;;;;;;;;3.25;2.50;;;;;25.53;40.08;101705.09;5059564;28;45331;-62
2023/07/10 09:36:50;;;;;;;;;2.00;2.00;;;;;25.54;39.82;101704.13;5059504;28;45550;-62
2023/07/10 09:39:16;;;;;;;;;1.75;1.75;;;;;25.59;40.17;101702.03;5061467;28;45418;-62
2023/07/10 09:41:43;;;;;;;;;2.50;2.00;;;;;25.61;39.29;101699.25;5059187;28;45321;-63
2023/07/10 09:44:19;;;;;;;;;3.25;3.00;;;;;25.70;39.88;101703.16;5078778;28;45408;-62
2023/07/10 09:46:45;;;;;;;;;3.25;2.75;;;;;25.73;39.91;101717.28;5079586;28;45341;-62
2023/07/10 09:49:17;;;;;;;;;2.00;2.00;;;;;25.76;39.68;101700.97;5078424;28;46996;-62
2023/07/10 09:51:56;;;;;;;;;1.00;0.75;;;;;25.83;39.75;101698.75;5068331;28;45493;-62
2023/07/10 09:54:22;;;;;;;;;2.00;2.00;;;;;25.86;39.39;101695.88;5079874;28;45307;-62
2023/07/10 09:56:50;;;;;;;;;2.00;1.50;;;;;25.92;39.42;101697.28;5079165;28;45584;-62
2023/07/10 09:59:22;;;;;;;;;2.00;2.00;;;;;25.97;39.28;101692.47;5079568;28;46287;-63
2023/07/10 10:01:50;;;;;;;;;3.25;2.25;;;;;26.04;38.90;101701.03;5079489;28;45397;-62
2023/07/10 10:04:28;;;;;;;;;5.50;2.25;;;;;26.09;39.10;101698.94;5079536;28;45328;-62
2023/07/10 10:07:03;;;;;;;;;3.00;2.00;;;;;26.16;39.19;101702.09;5079463;28;45486;-63
2023/07/10 10:09:29;;;;;;;;;2.50;2.25;;;;;26.19;39.19;101697.38;5080709;28;47058;-63
2023/07/10 10:12:09;;;;;;;;;1.00;1.00;;;;;26.27;38.41;101708.47;5082479;28;45259;-62
2023/07/10 10:14:48;;;;;;;;;6.75;3.00;;;;;26.31;39.08;101698.38;5081491;28;45457;-62
2023/07/10 10:17:18;;;;;;;;;1.75;1.75;;;;;26.41;38.25;101704.03;5082864;28;45379;-62
2023/07/10 10:19:50;;;;;;;;;3.75;2.00;;;;;26.47;38.91;101700.06;5082305;28;45278;-62
2023/07/10 10:22:16;;;;;;;;;1.50;1.50;;;;;26.56;38.20;101696.75;5069532;27;45341;-62
2023/07/10 10:24:42;;;;;;;;;2.00;1.50;;;;;26.63;38.50;101705.28;5062288;28;45174;-62
2023/07/10 10:27:21;;;;;;;;;3.25;2.00;;;;;26.69;38.13;101692.28;5062348;28;45220;-62
2023/07/10 10:30:04;;;;;;;;;2.50;1.50;;;;;26.78;37.60;101693.50;5070694;28;46268;-62
2023/07/10 10:32:54;;;;;;;;;0.75;0.75;;;;;26.86;37.99;101687.59;5082642;28;45376;-63
2023/07/10 10:35:24;;;;;;;;;1.00;1.00;;;;;26.98;37.16;101683.16;5082541;28;45385;-63
2023/07/10 10:38:05;;;;;;;;;3.75;2.75;;;;;27.11;37.58;101685.88;5082654;28;45227;-63
2023/07/10 10:40:56;;;;;;;;;1.00;1.00;;;;;27.20;37.25;101677.16;5081921;28;45325;-62
2023/07/10 10:43:31;;;;;;;;;3.00;1.75;;;;;27.39;37.17;101680.31;5037080;28;45511;-62
2023/07/10 10:46:22;;;;;;;;;3.50;2.00;;;;;27.56;36.90;101686.34;5081066;28;45352;-62
2023/07/10 10:49:01;;;;;;;;;1.00;1.00;;;;;27.73;36.75;101674.31;5082177;27;45503;-62
2023/07/10 10:51:55;;;;;;;;;1.25;1.25;;;;;27.95;36.68;101697.94;5071055;28;45402;-62
2023/07/10 10:54:39;;;;;;;;;1.75;1.75;;;;;28.15;35.83;101692.91;5080758;28;45316;-62
2023/07/10 10:57:20;;;;;;;;;1.75;1.75;;;;;28.34;35.27;101684.28;5082066;28;45257;-63
2023/07/10 11:00:06;;;;;;;;;2.50;1.25;;;;;28.55;35.73;101673.72;5082202;28;45220;-63
2023/07/10 11:03:00;;;;;;;;;1.75;1.75;;;;;28.79;35.45;101681.84;5082074;28;46002;-63
2023/07/10 11:05:49;;;;;;;;;0.25;0.25;;;;;29.07;35.26;101681.50;5071776;28;45295;-63
2023/07/10 11:08:27;;;;;;;;;1.00;1.00;;;;;29.28;35.50;101681.66;5082054;28;45357;-63
2023/07/10 11:10:54;;;;;;;;;0.00;0.00;;;;;29.48;35.00;101689.13;5066208;28;45529;-64
2023/07/10 11:13:37;;;;;;;;;0.25;0.25;;;;;29.68;34.68;101675.78;5061579;28;46309;-63
2023/07/10 11:16:06;;;;;;;;;0.50;0.50;;;;;29.93;34.92;101677.38;5059984;28;45797;-63
2023/07/10 11:18:32;;;;;;;;;2.00;1.50;;;;;30.18;34.91;101682.66;5061730;28;45232;-64
2023/07/10 11:21:01;;;;;;;;;1.25;1.00;;;;;30.39;34.83;101661.88;5068139;28;45564;-64
2023/07/10 11:23:40;;;;;;;;;1.75;1.50;;;;;30.61;34.52;101668.22;5059993;28;45746;-63
2023/07/10 11:26:27;;;;;;;;;2.00;0.50;;;;;30.87;34.80;101662.38;5060987;28;45228;-63
2023/07/10 11:28:57;;;;;;;;;1.00;1.00;;;;;31.10;34.30;101658.56;5060054;28;45269;-64
2023/07/10 11:31:28;;;;;;;;;0.75;0.75;;;;;31.30;34.05;101658.66;5065426;28;45576;-63